createdAt,value
2023-02-08T05:53:39.296Z,39.00
2023-02-08T05:54:20.323Z,40.00
2023-02-08T05:54:52.799Z,42.33
2023-02-08T05:55:27.727Z,50.33
2023-02-08T05:56:00.416Z,53.33
2023-02-08T05:56:33.311Z,60.00
2023-02-08T05:57:05.843Z,62.67
2023-02-08T05:57:38.304Z,63.67
2023-02-08T05:58:10.680Z,62.67
2023-02-08T05:58:50.355Z,75.33
2023-02-08T05:59:22.744Z,71.00
2023-02-08T05:59:55.074Z,63.00
2023-02-08T06:00:27.460Z,60.67
2023-02-08T06:00:59.879Z,56.67
2023-02-08T06:01:32.296Z,49.33
2023-02-08T06:02:04.760Z,43.00
2023-02-08T06:02:37.432Z,39.00
2023-02-08T06:03:10.794Z,36.33
2023-02-08T06:03:43.174Z,34.33
2023-02-08T06:04:15.647Z,32.00
2023-02-08T06:04:48.016Z,29.33
2023-02-08T06:05:20.312Z,28.33
2023-02-08T06:05:52.749Z,28.00
2023-02-08T06:06:25.064Z,28.67
2023-02-08T06:06:57.346Z,30.00
2023-02-08T06:07:29.857Z,31.33
2023-02-08T06:08:02.128Z,35.33
2023-02-08T06:08:34.448Z,36.33
2023-02-08T06:09:06.716Z,37.00
2023-02-08T06:09:39.068Z,37.00
2023-02-08T06:10:11.633Z,37.00
2023-02-08T06:10:45.892Z,37.67
2023-02-08T06:11:19.372Z,38.00
2023-02-08T06:11:51.747Z,38.00
2023-02-08T06:12:24.066Z,38.00
2023-02-08T06:12:56.336Z,38.00
2023-02-08T06:13:29.313Z,38.00
2023-02-08T06:14:02.248Z,38.00
2023-02-08T06:14:34.558Z,38.00
2023-02-08T06:15:07.089Z,38.00
2023-02-08T06:15:39.369Z,37.00
2023-02-08T06:16:12.659Z,36.33
2023-02-08T06:16:44.976Z,35.33
2023-02-08T06:17:17.351Z,35.00
2023-02-08T06:17:50.326Z,35.00
2023-02-08T06:18:22.622Z,35.00
2023-02-08T06:18:55.016Z,35.00
2023-02-08T06:19:27.300Z,35.00
2023-02-08T06:19:59.609Z,35.00
2023-02-08T06:20:31.898Z,35.00
2023-02-08T06:21:04.877Z,35.67
2023-02-08T06:21:37.183Z,36.00
2023-02-08T06:22:09.461Z,36.00
2023-02-08T06:22:41.766Z,36.00
2023-02-08T06:23:14.069Z,37.00
2023-02-08T06:23:46.367Z,37.00
2023-02-08T06:24:18.785Z,37.33
2023-02-08T06:24:51.118Z,38.00
2023-02-08T06:25:23.505Z,39.00
2023-02-08T06:25:56.033Z,39.33
2023-02-08T06:26:28.348Z,40.00
2023-02-08T06:27:00.627Z,40.00
2023-02-08T06:27:32.889Z,40.00
2023-02-08T06:28:05.723Z,40.67
2023-02-08T06:28:38.044Z,41.00
2023-02-08T06:29:10.689Z,41.00
2023-02-08T06:29:43.062Z,42.00
2023-02-08T06:30:15.455Z,42.00
2023-02-08T06:30:50.319Z,42.00
2023-02-08T06:31:22.662Z,42.00
2023-02-08T06:31:55.074Z,42.00
2023-02-08T06:32:27.556Z,42.00
2023-02-08T06:32:59.838Z,43.33
2023-02-08T06:33:32.190Z,46.00
2023-02-08T06:34:04.450Z,48.00
2023-02-08T06:34:36.793Z,53.33
2023-02-08T06:35:09.149Z,61.00
2023-02-08T06:35:47.643Z,60.00
2023-02-08T06:36:21.206Z,57.67
2023-02-08T06:36:53.777Z,56.67
2023-02-08T06:37:29.101Z,56.00
2023-02-08T06:38:04.229Z,55.00
2023-02-08T06:38:36.537Z,55.00
2023-02-08T06:39:08.834Z,55.33
2023-02-08T06:39:41.510Z,57.00
2023-02-08T06:40:13.818Z,61.00
2023-02-08T06:40:49.827Z,68.67
2023-02-08T06:41:22.123Z,75.67
2023-02-08T06:41:54.452Z,76.33
2023-02-08T06:42:26.743Z,79.00
2023-02-08T06:42:58.998Z,79.33
2023-02-08T06:43:31.316Z,81.00
2023-02-08T06:44:03.673Z,81.67
2023-02-08T06:44:36.009Z,87.33
2023-02-08T06:45:12.051Z,84.67
2023-02-08T06:45:47.096Z,83.67
2023-02-08T06:46:19.453Z,83.67
2023-02-08T06:46:52.006Z,81.00
2023-02-08T06:47:25.819Z,81.00
2023-02-08T06:47:59.226Z,79.33
2023-02-08T06:48:31.941Z,76.67
2023-02-08T06:49:04.255Z,69.67
2023-02-08T06:49:36.929Z,65.33
2023-02-08T06:50:12.369Z,65.00
2023-02-08T06:50:44.780Z,65.00
2023-02-08T06:51:17.116Z,65.00
2023-02-08T06:51:49.450Z,65.00
2023-02-08T06:52:22.205Z,65.00
2023-02-08T06:52:54.533Z,64.33
2023-02-08T06:53:27.082Z,62.00
2023-02-08T06:53:59.364Z,61.33
2023-02-08T06:54:31.679Z,62.33
2023-02-08T06:55:04.419Z,62.67
2023-02-08T06:55:39.856Z,62.00
2023-02-08T06:56:12.146Z,62.00
2023-02-08T06:56:44.912Z,61.00
2023-02-08T06:57:17.279Z,56.67
2023-02-08T06:57:49.714Z,52.67
2023-02-08T06:58:26.802Z,50.00
2023-02-08T06:58:59.287Z,48.67
2023-02-08T06:59:31.647Z,48.33
2023-02-08T07:00:05.597Z,47.67
2023-02-08T07:00:39.264Z,45.00
2023-02-08T07:01:15.417Z,43.33
2023-02-08T07:01:47.751Z,45.00
2023-02-08T07:02:21.602Z,44.67
2023-02-08T07:02:54.121Z,43.67
2023-02-08T07:03:26.504Z,43.00
2023-02-08T07:03:58.842Z,42.33
2023-02-08T07:04:31.450Z,42.33
2023-02-08T07:05:04.580Z,43.67
2023-02-08T07:05:37.509Z,44.00
2023-02-08T07:06:15.158Z,44.67
2023-02-08T07:06:50.546Z,45.00
2023-02-08T07:07:22.915Z,45.00
2023-02-08T07:07:55.344Z,45.00
2023-02-08T07:08:28.898Z,45.33
2023-02-08T07:09:02.638Z,46.67
2023-02-08T07:09:36.032Z,47.00
2023-02-08T07:10:08.630Z,49.33
2023-02-08T07:10:41.242Z,50.00
2023-02-08T07:11:16.766Z,49.33
2023-02-08T07:11:49.123Z,48.00
2023-02-08T07:12:21.584Z,48.67
2023-02-08T07:12:53.892Z,49.00
2023-02-08T07:13:26.263Z,47.67
2023-02-08T07:13:58.605Z,46.00
2023-02-08T07:14:39.682Z,45.33
2023-02-08T07:15:13.701Z,45.67
2023-02-08T07:15:45.972Z,45.67
2023-02-08T07:16:22.607Z,45.33
2023-02-08T07:16:56.344Z,46.00
2023-02-08T07:17:28.902Z,46.00
2023-02-08T07:18:01.645Z,45.33
2023-02-08T07:18:35.152Z,44.33
2023-02-08T07:19:07.548Z,44.00
2023-02-08T07:19:40.533Z,44.00
2023-02-08T07:20:13.062Z,43.67
2023-02-08T07:20:45.391Z,43.00
2023-02-08T07:21:17.683Z,43.00
2023-02-08T07:21:49.985Z,43.00
2023-02-08T07:22:22.289Z,43.00
2023-02-08T07:22:54.956Z,43.33
2023-02-08T07:23:27.502Z,48.00
2023-02-08T07:23:59.757Z,57.00
2023-02-08T07:24:32.089Z,66.00
2023-02-08T07:25:06.083Z,69.33
2023-02-08T07:25:38.546Z,66.00
2023-02-08T07:26:12.334Z,69.00
2023-02-08T07:26:44.726Z,70.67
2023-02-08T07:27:16.964Z,68.33
2023-02-08T07:27:49.305Z,70.67
2023-02-08T07:28:21.708Z,72.00
2023-02-08T07:28:54.151Z,69.33
2023-02-08T07:29:26.431Z,68.00
2023-02-08T07:30:00.855Z,66.67
2023-02-08T07:30:33.211Z,66.00
2023-02-08T07:31:08.079Z,67.33
2023-02-08T07:31:40.454Z,68.33
2023-02-08T07:32:13.654Z,68.67
2023-02-08T07:32:46.027Z,74.00
2023-02-08T07:33:18.380Z,77.67
2023-02-08T07:33:50.770Z,75.00
2023-02-08T07:34:23.027Z,76.67
2023-02-08T07:34:55.309Z,76.00
2023-02-08T07:35:27.613Z,74.33
2023-02-08T07:35:59.927Z,73.33
2023-02-08T07:36:32.313Z,73.00
2023-02-08T07:37:04.858Z,73.00
2023-02-08T07:37:37.450Z,74.00
2023-02-08T07:38:10.169Z,83.00
2023-02-08T07:38:42.540Z,87.00
2023-02-08T07:39:15.028Z,89.33
2023-02-08T07:39:47.351Z,85.33
2023-02-08T07:40:19.755Z,82.67
2023-02-08T07:40:52.021Z,81.67
2023-02-08T07:41:24.341Z,80.67
2023-02-08T07:41:56.767Z,78.00
2023-02-08T07:42:29.058Z,76.67
2023-02-08T07:43:01.386Z,76.67
2023-02-08T07:43:35.078Z,78.33
2023-02-08T07:44:07.525Z,76.67
2023-02-08T07:44:40.039Z,73.67
2023-02-08T07:45:12.362Z,68.67
2023-02-08T07:45:46.673Z,65.67
2023-02-08T07:46:21.640Z,65.00
2023-02-08T07:46:57.142Z,65.67
2023-02-08T07:47:29.490Z,66.00
2023-02-08T07:48:01.843Z,66.00
2023-02-08T07:48:34.329Z,66.00
2023-02-08T07:49:09.545Z,65.00
2023-02-08T07:49:41.837Z,65.00
2023-02-08T07:50:16.691Z,65.00
2023-02-08T07:50:49.024Z,65.00
2023-02-08T07:51:21.391Z,68.00
2023-02-08T07:51:53.655Z,110.00
2023-02-08T07:52:25.970Z,147.67
2023-02-08T07:52:58.276Z,113.67
2023-02-08T07:53:31.588Z,100.67
2023-02-08T07:54:03.976Z,94.00
2023-02-08T07:54:36.262Z,92.67
2023-02-08T07:55:09.919Z,92.00
2023-02-08T07:55:44.717Z,90.00
2023-02-08T07:56:17.467Z,82.33
2023-02-08T07:56:49.776Z,79.00
2023-02-08T07:57:22.197Z,80.00
2023-02-08T07:57:56.134Z,81.00
2023-02-08T07:58:28.831Z,128.00
2023-02-08T07:59:01.178Z,202.33
2023-02-08T07:59:33.460Z,155.33
2023-02-08T08:00:06.355Z,117.00
2023-02-08T08:00:38.941Z,137.33
2023-02-08T08:01:21.910Z,122.67
2023-02-08T08:01:54.819Z,127.67
2023-02-08T08:02:27.118Z,126.00
2023-02-08T08:02:59.547Z,118.00
2023-02-08T08:03:31.901Z,116.67
2023-02-08T08:04:04.517Z,110.33
2023-02-08T08:04:36.904Z,90.33
2023-02-08T08:05:09.565Z,76.33
2023-02-08T08:05:42.484Z,74.33
2023-02-08T08:06:14.763Z,77.67
2023-02-08T08:06:47.054Z,83.00
2023-02-08T08:07:19.598Z,84.33
2023-02-08T08:07:51.896Z,85.00
2023-02-08T08:08:24.384Z,84.33
2023-02-08T08:08:56.726Z,81.67
2023-02-08T08:09:29.002Z,79.33
2023-02-08T08:10:01.287Z,81.00
2023-02-08T08:10:33.667Z,83.00
2023-02-08T08:11:06.266Z,83.67
2023-02-08T08:11:38.541Z,83.00
2023-02-08T08:12:10.865Z,81.00
2023-02-08T08:12:43.182Z,79.67
2023-02-08T08:13:15.588Z,82.00
2023-02-08T08:13:48.181Z,85.00
2023-02-08T08:14:20.482Z,86.00
2023-02-08T08:14:52.806Z,85.33
2023-02-08T08:15:25.236Z,78.67
2023-02-08T08:15:57.596Z,76.00
2023-02-08T08:16:29.923Z,77.67
2023-02-08T08:17:02.419Z,79.00
2023-02-08T08:17:35.375Z,79.00
2023-02-08T08:18:08.607Z,80.00
2023-02-08T08:18:41.001Z,81.00
2023-02-08T08:19:13.423Z,82.00
2023-02-08T08:19:45.901Z,81.67
2023-02-08T08:20:18.310Z,81.67
2023-02-08T08:20:51.083Z,83.00
2023-02-08T08:21:23.607Z,88.33
2023-02-08T08:22:06.571Z,92.67
2023-02-08T08:22:38.834Z,94.33
2023-02-08T08:23:11.138Z,104.00
2023-02-08T08:23:43.570Z,112.00
2023-02-08T08:24:17.200Z,108.67
2023-02-08T08:24:49.586Z,105.33
2023-02-08T08:25:21.922Z,105.00
2023-02-08T08:25:54.383Z,104.67
2023-02-08T08:26:26.784Z,105.00
2023-02-08T08:26:59.090Z,104.00
2023-02-08T08:27:31.364Z,100.00
2023-02-08T08:28:04.569Z,96.33
2023-02-08T08:28:38.309Z,96.00
2023-02-08T08:29:10.694Z,98.33
2023-02-08T08:29:43.020Z,100.33
2023-02-08T08:30:17.735Z,97.67
2023-02-08T08:30:50.150Z,97.33
2023-02-08T08:31:22.977Z,105.67
2023-02-08T08:31:55.297Z,106.00
2023-02-08T08:32:28.115Z,102.67
2023-02-08T08:33:00.426Z,101.67
2023-02-08T08:33:32.748Z,100.33
2023-02-08T08:34:05.073Z,100.00
2023-02-08T08:34:37.419Z,99.67
2023-02-08T08:35:10.424Z,99.00
2023-02-08T08:35:43.948Z,99.00
2023-02-08T08:36:17.686Z,100.33
2023-02-08T08:36:50.055Z,104.33
2023-02-08T08:37:22.376Z,118.33
2023-02-08T08:37:54.716Z,121.33
2023-02-08T08:38:30.984Z,114.33
2023-02-08T08:39:03.399Z,112.67
2023-02-08T08:39:37.145Z,111.67
2023-02-08T08:40:10.157Z,112.67
2023-02-08T08:40:42.942Z,115.00
2023-02-08T08:41:18.115Z,112.00
2023-02-08T08:41:50.701Z,110.67
2023-02-08T08:42:23.125Z,106.33
2023-02-08T08:42:56.519Z,100.67
2023-02-08T08:43:28.914Z,101.00
2023-02-08T08:44:01.742Z,101.67
2023-02-08T08:44:34.146Z,99.00
2023-02-08T08:45:08.347Z,98.67
2023-02-08T08:45:40.997Z,98.33
2023-02-08T08:46:13.924Z,103.67
2023-02-08T08:46:46.334Z,106.33
2023-02-08T08:47:19.110Z,104.67
2023-02-08T08:47:51.443Z,103.00
2023-02-08T08:48:23.712Z,148.33
2023-02-08T08:48:55.983Z,157.00
2023-02-08T08:49:29.410Z,173.00
2023-02-08T08:50:01.780Z,194.33
2023-02-08T08:50:34.056Z,185.33
2023-02-08T08:51:07.134Z,157.33
2023-02-08T08:51:39.853Z,145.33
2023-02-08T08:52:12.800Z,136.67
2023-02-08T08:52:45.338Z,135.00
2023-02-08T08:53:17.702Z,133.00
2023-02-08T08:53:50.002Z,120.67
2023-02-08T08:54:22.723Z,104.67
2023-02-08T08:54:55.159Z,111.00
2023-02-08T08:55:28.414Z,126.33
2023-02-08T08:56:01.288Z,146.33
2023-02-08T08:56:33.844Z,133.67
2023-02-08T08:57:06.501Z,124.33
2023-02-08T08:57:38.774Z,121.67
2023-02-08T08:58:11.187Z,116.00
2023-02-08T08:58:43.680Z,110.00
2023-02-08T08:59:16.058Z,110.00
2023-02-08T08:59:48.452Z,116.00
2023-02-08T09:00:20.988Z,114.67
2023-02-08T09:00:54.139Z,111.33
2023-02-08T09:01:26.508Z,113.33
2023-02-08T09:01:59.303Z,120.33
2023-02-08T09:02:31.656Z,122.33
2023-02-08T09:03:04.033Z,119.00
2023-02-08T09:03:36.610Z,118.00
2023-02-08T09:04:10.762Z,102.33
2023-02-08T09:04:43.154Z,104.00
2023-02-08T09:05:15.461Z,97.00
2023-02-08T09:05:47.740Z,84.00
2023-02-08T09:06:20.086Z,91.67
2023-02-08T09:06:53.800Z,96.67
2023-02-08T09:07:26.276Z,99.00
2023-02-08T09:07:58.589Z,97.67
2023-02-08T09:08:30.915Z,95.67
2023-02-08T09:09:03.540Z,97.00
2023-02-08T09:09:36.707Z,94.00
2023-02-08T09:10:09.228Z,94.33
2023-02-08T09:10:41.669Z,98.00
2023-02-08T09:11:15.984Z,94.00
2023-02-08T09:11:49.206Z,91.33
2023-02-08T09:12:21.645Z,90.33
2023-02-08T09:12:54.033Z,99.67
2023-02-08T09:13:26.332Z,126.67
2023-02-08T09:13:59.276Z,148.67
2023-02-08T09:14:31.619Z,132.00
2023-02-08T09:15:04.262Z,125.67
2023-02-08T09:15:40.357Z,124.00
2023-02-08T09:16:17.795Z,122.67
2023-02-08T09:16:50.409Z,120.00
2023-02-08T09:17:22.732Z,118.33
2023-02-08T09:17:55.133Z,122.00
2023-02-08T09:18:27.415Z,129.00
2023-02-08T09:19:04.831Z,123.67
2023-02-08T09:19:37.138Z,114.00
2023-02-08T09:20:10.281Z,107.33
2023-02-08T09:20:43.018Z,102.33
2023-02-08T09:21:20.989Z,100.33
2023-02-08T09:21:53.340Z,95.67
2023-02-08T09:22:25.700Z,96.67
2023-02-08T09:22:58.084Z,97.33
2023-02-08T09:23:30.414Z,95.00
2023-02-08T09:24:04.106Z,95.33
2023-02-08T09:24:36.411Z,99.00
2023-02-08T09:25:08.723Z,121.33
2023-02-08T09:25:41.405Z,118.33
2023-02-08T09:26:16.660Z,117.00
2023-02-08T09:26:49.068Z,111.00
2023-02-08T09:27:21.464Z,110.67
2023-02-08T09:27:53.792Z,109.33
2023-02-08T09:28:26.325Z,106.33
2023-02-08T09:28:58.670Z,105.00
2023-02-08T09:29:32.808Z,103.00
2023-02-08T09:30:05.744Z,103.67
2023-02-08T09:30:38.101Z,104.00
2023-02-08T09:31:13.499Z,105.00
2023-02-08T09:31:46.172Z,106.67
2023-02-08T09:32:18.663Z,104.67
2023-02-08T09:32:50.953Z,103.67
2023-02-08T09:33:23.230Z,104.00
2023-02-08T09:33:57.808Z,115.67
2023-02-08T09:34:30.188Z,119.33
2023-02-08T09:35:03.015Z,117.33
2023-02-08T09:35:35.288Z,117.33
2023-02-08T09:36:08.607Z,116.33
2023-02-08T09:36:42.018Z,116.33
2023-02-08T09:37:17.277Z,113.67
2023-02-08T09:37:54.473Z,120.33
2023-02-08T09:38:27.048Z,131.67
2023-02-08T09:39:05.257Z,129.67
2023-02-08T09:39:37.538Z,135.00
2023-02-08T09:41:11.128Z,138.00
2023-02-08T09:42:22.240Z,102.67
2023-02-08T09:43:44.687Z,107.67
2023-02-08T09:44:47.286Z,104.33
2023-02-08T09:45:59.064Z,109.00
2023-02-08T09:46:36.344Z,112.00
2023-02-08T09:47:28.845Z,112.00
2023-02-08T09:48:33.928Z,115.00
2023-02-08T09:49:15.906Z,107.33
2023-02-08T09:50:19.752Z,106.67
2023-02-08T09:51:07.833Z,104.00
2023-02-08T09:51:49.975Z,106.33
2023-02-08T09:52:29.250Z,108.67
2023-02-08T09:53:06.470Z,107.00
2023-02-08T09:53:50.382Z,106.00
2023-02-08T09:54:39.766Z,99.67
2023-02-08T09:55:27.178Z,101.67
2023-02-08T09:56:05.663Z,124.67
2023-02-08T09:56:41.429Z,134.33
2023-02-08T09:57:19.911Z,128.67
2023-02-08T09:57:58.597Z,130.67
2023-02-08T09:58:39.771Z,127.33
2023-02-08T09:59:27.163Z,125.33
2023-02-08T10:00:04.299Z,111.33
2023-02-08T10:00:46.234Z,98.33
2023-02-08T10:01:24.365Z,100.33
2023-02-08T10:02:02.353Z,102.33
2023-02-08T10:02:34.893Z,99.00
2023-02-08T10:03:30.265Z,98.33
2023-02-08T10:04:40.134Z,91.67
2023-02-08T10:05:21.668Z,133.00
2023-02-08T10:05:54.317Z,128.67
2023-02-08T10:06:26.798Z,127.00
2023-02-08T10:06:59.224Z,128.67
2023-02-08T10:07:34.428Z,125.33
2023-02-08T10:08:12.245Z,146.67
2023-02-08T10:08:46.209Z,139.00
2023-02-08T10:09:23.128Z,131.33
2023-02-08T10:10:02.073Z,133.00
2023-02-08T10:10:56.926Z,142.33
2023-02-08T10:12:03.178Z,146.33
2023-02-08T10:12:51.583Z,133.67
2023-02-08T10:13:42.251Z,102.00
2023-02-08T10:14:36.327Z,89.67
2023-02-08T10:15:36.097Z,91.00
2023-02-08T10:16:42.400Z,87.67
2023-02-08T10:17:42.291Z,98.00
2023-02-08T10:18:25.482Z,117.00
2023-02-08T10:19:16.592Z,108.67
2023-02-08T10:19:54.953Z,100.67
2023-02-08T10:20:48.423Z,103.67
2023-02-08T10:22:08.523Z,98.67
2023-02-08T10:22:51.301Z,90.33
2023-02-08T10:23:59.915Z,94.67
2023-02-08T10:24:50.030Z,76.67
2023-02-08T10:25:34.905Z,84.67
2023-02-08T10:26:09.713Z,83.00
2023-02-08T10:26:54.936Z,78.67
2023-02-08T10:27:46.495Z,65.00
2023-02-08T10:28:44.414Z,78.33
2023-02-08T10:29:25.469Z,86.67
2023-02-08T10:30:16.598Z,83.33
2023-02-08T10:31:07.884Z,90.67
2023-02-08T10:32:05.047Z,81.00
2023-02-08T10:32:58.399Z,83.33
2023-02-08T10:33:56.857Z,83.00
2023-02-08T10:34:44.744Z,85.00
2023-02-08T10:35:37.522Z,89.67
2023-02-08T10:36:17.015Z,74.33
2023-02-08T10:36:49.334Z,78.33
2023-02-08T10:37:29.442Z,79.33
2023-02-08T10:38:01.818Z,80.33
2023-02-08T10:38:46.021Z,88.33
2023-02-08T10:39:28.171Z,95.67
2023-02-08T10:40:18.647Z,94.00
2023-02-08T10:41:00.175Z,94.00
2023-02-08T10:41:36.606Z,95.67
2023-02-08T10:42:24.796Z,94.67
2023-02-08T10:43:24.486Z,93.00
2023-02-08T10:44:13.451Z,93.00
2023-02-08T10:45:23.848Z,74.33
2023-02-08T10:46:24.087Z,72.33
2023-02-08T10:47:09.969Z,58.00
2023-02-08T10:47:58.383Z,56.33
2023-02-08T10:49:03.594Z,57.33
2023-02-08T10:49:57.894Z,69.00
2023-02-08T10:50:36.977Z,99.67
2023-02-08T10:51:24.132Z,148.67
2023-02-08T10:51:56.486Z,180.33
2023-02-08T10:52:28.935Z,143.67
2023-02-08T10:53:03.344Z,136.00
2023-02-08T10:53:35.644Z,119.00
2023-02-08T10:54:13.857Z,117.00
2023-02-08T10:54:46.306Z,112.33
2023-02-08T10:55:20.918Z,110.33
2023-02-08T10:55:54.219Z,104.00
2023-02-08T10:56:52.740Z,117.00
2023-02-08T10:57:31.064Z,113.67
2023-02-08T10:58:06.050Z,98.33
2023-02-08T10:58:41.401Z,94.67
2023-02-08T10:59:21.282Z,93.67
2023-02-08T11:00:19.717Z,93.00
2023-02-08T11:00:53.393Z,94.67
2023-02-08T11:01:31.030Z,93.67
2023-02-08T11:02:26.812Z,92.00
2023-02-08T11:03:12.453Z,77.00
2023-02-08T11:04:02.394Z,81.33
2023-02-08T11:04:57.026Z,83.33
2023-02-08T11:05:34.967Z,84.67
2023-02-08T11:06:26.245Z,95.00
2023-02-08T11:06:58.822Z,113.33
2023-02-08T11:07:36.483Z,147.33
2023-02-08T11:08:19.874Z,118.67
2023-02-08T11:08:56.337Z,109.00
2023-02-08T11:09:31.078Z,89.33
2023-02-08T11:10:29.550Z,81.67
2023-02-08T11:11:10.474Z,62.67
2023-02-08T11:11:46.690Z,50.00
2023-02-08T11:12:21.873Z,45.33
2023-02-08T11:13:18.114Z,45.67
2023-02-08T11:13:53.346Z,50.67
2023-02-08T11:14:46.251Z,55.00
2023-02-08T11:15:40.182Z,55.33
2023-02-08T11:16:22.133Z,60.00
2023-02-08T11:16:58.452Z,55.00
2023-02-08T11:17:34.125Z,49.67
2023-02-08T11:18:20.093Z,46.33
2023-02-08T11:18:57.119Z,54.33
2023-02-08T11:19:46.064Z,54.67
2023-02-08T11:20:36.302Z,51.00
2023-02-08T11:21:37.517Z,44.00
2023-02-08T11:22:17.864Z,48.00
2023-02-08T11:22:50.823Z,45.67
2023-02-08T11:23:30.823Z,46.33
2023-02-08T11:24:15.079Z,47.67
2023-02-08T11:24:58.535Z,46.67
2023-02-08T11:25:39.485Z,49.00
2023-02-08T11:26:17.812Z,51.33
2023-02-08T11:26:50.294Z,53.33
2023-02-08T11:27:28.230Z,54.00
2023-02-08T11:28:01.392Z,53.33
2023-02-08T11:28:33.723Z,54.67
2023-02-08T11:29:15.834Z,54.67
2023-02-08T11:30:13.998Z,54.00
2023-02-08T11:30:56.566Z,52.33
2023-02-08T11:31:29.574Z,56.00
2023-02-08T11:32:13.160Z,56.67
2023-02-08T11:32:48.110Z,59.33
2023-02-08T11:33:22.847Z,73.00
2023-02-08T11:34:06.559Z,73.33
2023-02-08T11:34:40.164Z,74.33
2023-02-08T11:35:21.903Z,72.67
2023-02-08T11:36:15.769Z,71.00
2023-02-08T11:36:48.170Z,63.67
2023-02-08T11:37:28.764Z,62.33
2023-02-08T11:38:01.178Z,63.00
2023-02-08T11:38:38.266Z,65.00
2023-02-08T11:39:22.700Z,66.00
2023-02-08T11:39:59.751Z,65.00
2023-02-08T11:40:36.561Z,65.00
2023-02-08T11:42:29.400Z,64.67
2023-02-08T11:43:02.490Z,65.00
2023-02-08T11:43:36.018Z,65.00
2023-02-08T11:44:16.968Z,62.67
2023-02-08T11:44:53.308Z,55.67
2023-02-08T11:45:30.569Z,54.00
2023-02-08T11:46:05.552Z,53.00
2023-02-08T11:46:40.448Z,52.67
2023-02-08T11:47:18.925Z,50.00
2023-02-08T11:47:53.343Z,55.33
2023-02-08T11:48:49.436Z,63.67
2023-02-08T11:49:36.075Z,58.33
2023-02-08T11:50:24.631Z,55.67
2023-02-08T11:51:00.719Z,55.33
2023-02-08T11:51:37.046Z,56.67
2023-02-08T11:52:40.526Z,56.33
2023-02-08T11:53:36.533Z,54.00
2023-02-08T11:54:39.344Z,53.33
2023-02-08T11:55:17.671Z,59.00
2023-02-08T11:56:15.858Z,66.67
2023-02-08T11:57:02.942Z,65.67
2023-02-08T11:57:35.274Z,60.67
2023-02-08T11:58:13.992Z,60.00
2023-02-08T11:59:14.972Z,60.67
2023-02-08T11:59:49.732Z,70.67
2023-02-08T12:00:26.383Z,67.67
2023-02-08T12:01:30.028Z,65.33
2023-02-08T12:02:39.108Z,64.33
2023-02-08T12:03:25.288Z,75.00
2023-02-08T12:04:01.411Z,72.00
2023-02-08T12:04:34.845Z,97.00
2023-02-08T12:05:21.200Z,91.67
2023-02-08T12:06:02.587Z,80.00
2023-02-08T12:06:56.727Z,84.33
2023-02-08T12:07:53.832Z,92.33
2023-02-08T12:08:38.115Z,60.00
2023-02-08T12:09:25.171Z,45.67
2023-02-08T12:10:06.428Z,51.67
2023-02-08T12:10:55.519Z,53.67
2023-02-08T12:11:43.407Z,51.67
2023-02-08T12:12:29.352Z,47.00
2023-02-08T12:13:24.147Z,47.33
2023-02-08T12:14:02.675Z,50.33
2023-02-08T12:14:41.444Z,53.67
2023-02-08T12:15:44.996Z,55.00
2023-02-08T12:16:37.112Z,62.67
2023-02-08T12:17:37.128Z,62.33
2023-02-08T12:18:22.117Z,62.67
2023-02-08T12:19:28.277Z,71.33
2023-02-08T12:20:32.247Z,66.67
2023-02-08T12:21:21.633Z,101.67
2023-02-08T12:22:06.790Z,102.67
2023-02-08T12:22:48.248Z,271.00
2023-02-08T12:23:50.242Z,302.67
2023-02-08T12:24:25.548Z,158.67
2023-02-08T12:25:21.142Z,150.33
2023-02-08T12:26:19.553Z,202.00
2023-02-08T12:27:01.472Z,351.33
2023-02-08T12:27:59.749Z,256.33
2023-02-08T12:28:40.646Z,219.67
2023-02-08T12:29:33.157Z,169.00
2023-02-08T12:30:32.674Z,107.33
2023-02-08T12:31:21.294Z,83.67
2023-02-08T12:31:56.664Z,64.33
2023-02-08T12:32:38.622Z,80.33
2023-02-08T12:33:35.776Z,125.00
2023-02-08T12:34:27.044Z,142.33
2023-02-08T12:35:53.894Z,196.67
2023-02-08T12:36:31.884Z,216.33
2023-02-08T12:38:07.589Z,242.00
2023-02-08T12:39:21.329Z,246.67
2023-02-08T12:40:35.166Z,132.33
2023-02-08T12:41:18.114Z,112.33
2023-02-08T12:41:50.373Z,86.33
2023-02-08T12:42:44.144Z,103.33
2023-02-08T12:43:36.160Z,78.67
2023-02-08T12:44:23.614Z,71.33
2023-02-08T12:45:26.767Z,75.00
2023-02-08T12:46:11.562Z,74.33
2023-02-08T12:46:46.670Z,84.67
2023-02-08T12:47:33.654Z,82.00
2023-02-08T12:48:23.667Z,81.00
2023-02-08T12:49:20.174Z,81.33
2023-02-08T12:50:35.432Z,97.00
2023-02-08T12:51:51.338Z,74.33
2023-02-08T12:52:35.528Z,90.00
2023-02-08T12:53:30.854Z,67.67
2023-02-08T12:54:10.707Z,83.33
2023-02-08T12:54:51.897Z,83.00
2023-02-08T12:55:31.914Z,83.67
2023-02-08T12:56:12.436Z,81.33
2023-02-08T12:57:00.298Z,58.33
2023-02-08T12:57:34.598Z,54.00
2023-02-08T12:58:43.980Z,50.67
2023-02-08T13:01:29.753Z,115.00
2023-02-08T13:02:18.392Z,93.00
2023-02-08T13:03:23.662Z,64.00
2023-02-08T13:04:47.323Z,67.00
2023-02-08T13:05:24.408Z,50.67
2023-02-08T13:06:17.394Z,53.00
2023-02-08T13:07:06.826Z,49.00
2023-02-08T13:07:45.023Z,43.00
2023-02-08T13:08:32.535Z,50.33
2023-02-08T13:09:05.433Z,130.00
2023-02-08T15:19:24.391Z,68.33
2023-02-08T15:19:57.664Z,58.00
2023-02-08T15:20:32.369Z,60.67
2023-02-08T15:21:08.506Z,61.33
2023-02-08T15:21:41.199Z,61.00
2023-02-08T15:22:18.709Z,61.00
2023-02-08T15:23:06.930Z,60.67
2023-02-08T15:23:39.238Z,50.33
2023-02-08T15:24:17.858Z,40.67
2023-02-08T15:25:05.270Z,38.33
2023-02-08T15:25:38.118Z,41.33
2023-02-08T15:26:22.245Z,45.00
2023-02-08T15:26:57.416Z,47.33
2023-02-08T15:27:32.835Z,49.00
2023-02-08T15:28:21.241Z,49.67
2023-02-08T15:28:54.003Z,52.00
2023-02-08T15:29:42.749Z,64.00
2023-02-08T15:30:31.926Z,72.00
2023-02-08T15:31:14.685Z,73.00
2023-02-08T15:31:48.019Z,72.00
2023-02-08T15:32:26.707Z,71.33
2023-02-08T15:33:01.110Z,77.67
2023-02-08T15:33:34.336Z,79.00
2023-02-08T15:34:06.638Z,81.00
2023-02-08T15:34:44.380Z,79.00
2023-02-08T15:35:24.265Z,74.33
2023-02-08T15:36:04.521Z,72.00
2023-02-08T15:36:38.722Z,71.67
2023-02-08T15:37:19.237Z,81.00
2023-02-08T15:37:53.881Z,91.67
2023-02-08T15:38:27.034Z,84.00
2023-02-08T15:39:04.194Z,81.00
2023-02-08T15:39:39.541Z,78.33
2023-02-08T15:40:40.974Z,78.00
2023-02-08T15:41:25.284Z,81.67
2023-02-08T15:41:59.231Z,100.33
2023-02-08T15:42:34.325Z,99.67
2023-02-08T15:43:06.566Z,122.33
2023-02-08T15:43:41.225Z,162.67
2023-02-08T15:44:25.099Z,146.67
2023-02-08T15:44:57.625Z,120.67
2023-02-08T15:45:32.803Z,125.33
2023-02-08T15:46:17.681Z,155.00
2023-02-08T15:46:55.124Z,211.00
2023-02-08T15:47:34.243Z,209.00
2023-02-08T15:48:07.705Z,319.33
2023-02-08T15:48:44.366Z,292.33
2023-02-08T15:49:23.009Z,236.00
2023-02-08T15:49:56.649Z,215.67
2023-02-08T15:50:31.957Z,222.00
2023-02-08T15:51:08.173Z,246.67
2023-02-08T15:51:40.715Z,249.67
2023-02-08T15:52:18.301Z,280.00
2023-02-08T15:53:02.686Z,273.67
2023-02-08T15:53:36.223Z,265.67
2023-02-08T15:54:17.098Z,300.67
2023-02-08T15:54:51.001Z,276.67
2023-02-08T15:55:24.843Z,237.33
2023-02-08T15:56:02.801Z,222.67
2023-02-08T15:56:42.236Z,218.33
2023-02-08T15:57:40.771Z,215.33
2023-02-08T15:58:28.642Z,240.33
2023-02-08T15:59:03.372Z,226.33
2023-02-08T15:59:40.125Z,208.00
2023-02-08T16:00:23.136Z,189.00
2023-02-08T16:00:59.011Z,195.67
2023-02-08T16:01:32.287Z,254.67
2023-02-08T16:02:21.537Z,323.67
2023-02-08T16:02:58.124Z,329.67
2023-02-08T16:03:31.309Z,305.33
2023-02-08T16:04:07.617Z,279.67
2023-02-08T16:04:46.700Z,271.67
2023-02-08T16:05:26.513Z,259.00
2023-02-08T16:06:02.238Z,251.33
2023-02-08T16:06:40.430Z,227.67
2023-02-08T16:07:38.253Z,209.00
2023-02-08T16:08:23.033Z,190.33
2023-02-08T16:09:00.316Z,188.67
2023-02-08T16:09:32.714Z,183.33
2023-02-08T16:10:07.873Z,182.00
2023-02-08T16:10:46.758Z,176.67
2023-02-08T16:11:26.070Z,178.33
2023-02-08T16:12:01.007Z,182.67
2023-02-08T16:12:34.261Z,189.33
2023-02-08T16:13:17.879Z,192.33
2023-02-08T16:13:53.520Z,192.33
2023-02-08T16:14:29.323Z,194.33
2023-02-08T16:15:02.690Z,197.67
2023-02-08T16:15:39.310Z,200.67